createdAt,value
2023-03-31T00:00:32.711Z,53.00
2023-03-31T00:02:42.293Z,46.65
2023-03-31T00:04:53.509Z,51.80
2023-03-31T00:07:00.715Z,54.50
2023-03-31T00:09:11.683Z,53.40
2023-03-31T00:11:19.277Z,60.47
2023-03-31T00:13:26.767Z,56.55
2023-03-31T00:15:33.692Z,57.17
2023-03-31T00:17:41.062Z,64.18
2023-03-31T00:19:51.016Z,66.15
2023-03-31T00:21:58.351Z,70.18
2023-03-31T00:24:07.070Z,63.90
2023-03-31T00:26:16.107Z,56.88
2023-03-31T00:28:22.918Z,56.22
2023-03-31T00:30:29.995Z,60.10
2023-03-31T00:32:38.614Z,51.80
2023-03-31T00:34:45.843Z,50.50
2023-03-31T00:36:57.323Z,57.05
2023-03-31T00:39:09.819Z,52.22
2023-03-31T00:41:18.703Z,51.13
2023-03-31T00:43:33.670Z,48.92
2023-03-31T00:45:41.243Z,52.78
2023-03-31T00:47:50.841Z,49.90
2023-03-31T00:49:59.867Z,49.92
2023-03-31T00:52:10.993Z,47.17
2023-03-31T00:54:20.614Z,45.30
2023-03-31T00:56:33.684Z,45.42
2023-03-31T00:58:44.680Z,48.75
2023-03-31T01:00:53.931Z,46.88
2023-03-31T01:03:06.017Z,42.13
2023-03-31T01:05:13.693Z,40.22
2023-03-31T01:07:26.768Z,40.92
2023-03-31T01:09:39.984Z,39.05
2023-03-31T01:11:49.729Z,40.97
2023-03-31T01:13:59.070Z,39.03
2023-03-31T01:16:06.756Z,39.42
2023-03-31T01:18:17.329Z,38.30
2023-03-31T01:20:33.507Z,39.53
2023-03-31T01:23:11.728Z,41.78
2023-03-31T01:25:56.376Z,39.63
2023-03-31T01:28:13.648Z,42.40
2023-03-31T01:31:01.255Z,39.65
2023-03-31T01:33:34.414Z,38.20
2023-03-31T01:36:19.542Z,40.25
2023-03-31T01:39:02.250Z,41.42
2023-03-31T01:41:35.032Z,40.20
2023-03-31T01:43:48.926Z,39.83
2023-03-31T01:46:01.807Z,40.72
2023-03-31T01:48:15.879Z,40.78
2023-03-31T01:50:29.677Z,48.13
2023-03-31T01:52:45.193Z,42.50
2023-03-31T01:54:56.779Z,45.35
2023-03-31T01:57:14.831Z,36.60
2023-03-31T01:59:27.320Z,39.35
2023-03-31T02:01:39.563Z,41.42
2023-03-31T02:03:52.989Z,44.42
2023-03-31T02:06:04.099Z,38.97
2023-03-31T02:08:16.431Z,35.08
2023-03-31T02:10:25.655Z,39.53
2023-03-31T02:12:41.908Z,39.72
2023-03-31T02:14:52.993Z,38.03
2023-03-31T02:17:03.431Z,36.38
2023-03-31T02:19:12.098Z,38.22
2023-03-31T02:21:20.164Z,38.40
2023-03-31T02:23:32.610Z,41.45
2023-03-31T02:25:47.265Z,39.00
2023-03-31T02:27:59.980Z,38.30
2023-03-31T02:30:07.873Z,38.50
2023-03-31T02:32:19.354Z,39.15
2023-03-31T02:34:26.983Z,36.63
2023-03-31T02:36:34.894Z,38.55
2023-03-31T02:38:46.945Z,39.22
2023-03-31T02:40:54.375Z,40.78
2023-03-31T02:43:02.995Z,37.25
2023-03-31T02:45:42.352Z,41.70
2023-03-31T02:47:49.771Z,45.55
2023-03-31T02:49:59.879Z,37.38
2023-03-31T02:52:26.858Z,35.28
2023-03-31T02:54:57.598Z,40.90
2023-03-31T02:57:36.315Z,41.65
2023-03-31T02:59:58.861Z,39.35
2023-03-31T03:02:16.301Z,36.10
2023-03-31T03:04:44.864Z,48.35
2023-03-31T03:07:01.885Z,44.00
2023-03-31T03:09:19.657Z,35.85
2023-03-31T03:11:34.876Z,38.05
2023-03-31T03:13:50.096Z,40.47
2023-03-31T03:16:04.773Z,38.28
2023-03-31T03:18:12.550Z,38.85
2023-03-31T03:20:22.234Z,39.03
2023-03-31T03:22:29.682Z,37.65
2023-03-31T03:24:37.082Z,37.03
2023-03-31T03:26:45.834Z,35.20
2023-03-31T03:28:52.874Z,36.65
2023-03-31T03:31:01.684Z,36.88
2023-03-31T03:33:09.298Z,38.70
2023-03-31T03:35:16.150Z,37.47
2023-03-31T03:37:23.902Z,36.67
2023-03-31T03:39:30.872Z,41.45
2023-03-31T03:41:38.211Z,36.70
2023-03-31T03:43:45.346Z,37.38
2023-03-31T03:45:52.919Z,37.08
2023-03-31T03:48:01.684Z,36.55
2023-03-31T03:50:09.954Z,35.30
2023-03-31T03:52:16.981Z,36.67
2023-03-31T03:54:24.365Z,38.25
2023-03-31T03:56:31.405Z,41.72
2023-03-31T03:58:38.574Z,40.85
2023-03-31T04:00:46.369Z,39.50
2023-03-31T04:02:53.615Z,37.05
2023-03-31T04:05:02.588Z,36.78
2023-03-31T04:07:10.114Z,36.58
2023-03-31T04:09:17.111Z,35.35
2023-03-31T04:11:24.747Z,34.72
2023-03-31T04:13:31.741Z,36.65
2023-03-31T04:15:38.959Z,33.13
2023-03-31T04:17:51.895Z,37.35
2023-03-31T04:20:06.310Z,36.00
2023-03-31T04:22:16.462Z,39.40
2023-03-31T04:24:24.093Z,38.78
2023-03-31T04:26:40.104Z,57.38
2023-03-31T04:28:51.621Z,55.90
2023-03-31T04:30:59.931Z,37.38
2023-03-31T04:33:07.742Z,34.42
2023-03-31T04:35:16.500Z,32.67
2023-03-31T04:37:23.731Z,37.17
2023-03-31T04:39:31.739Z,32.58
2023-03-31T04:41:39.030Z,37.85
2023-03-31T04:43:46.501Z,39.28
2023-03-31T04:45:53.789Z,35.42
2023-03-31T04:48:00.840Z,34.78
2023-03-31T04:50:10.385Z,37.47
2023-03-31T04:52:21.798Z,43.92
2023-03-31T04:54:29.031Z,59.33
2023-03-31T04:56:35.988Z,51.35
2023-03-31T04:58:43.376Z,40.78
2023-03-31T05:00:50.353Z,36.00
2023-03-31T05:02:58.045Z,37.63
2023-03-31T05:05:05.539Z,35.13
2023-03-31T05:07:12.828Z,32.08
2023-03-31T05:09:21.697Z,34.90
2023-03-31T05:11:29.979Z,32.45
2023-03-31T05:13:36.986Z,31.08
2023-03-31T05:15:46.163Z,33.70
2023-03-31T05:17:53.562Z,33.65
2023-03-31T05:20:00.883Z,33.10
2023-03-31T05:22:07.874Z,32.22
2023-03-31T05:24:15.608Z,36.03
2023-03-31T05:26:26.077Z,32.28
2023-03-31T05:28:33.050Z,33.40
2023-03-31T05:30:40.485Z,32.42
2023-03-31T05:32:47.731Z,39.70
2023-03-31T05:34:58.149Z,55.45
2023-03-31T05:37:05.673Z,48.28
2023-03-31T05:39:12.686Z,40.53
2023-03-31T05:41:19.710Z,33.00
2023-03-31T05:43:30.020Z,33.03
2023-03-31T05:45:37.422Z,34.35
2023-03-31T05:47:44.508Z,30.13
2023-03-31T05:49:52.036Z,35.88
2023-03-31T05:51:59.103Z,31.40
2023-03-31T05:54:07.260Z,35.15
2023-03-31T05:56:14.745Z,33.38
2023-03-31T05:58:22.045Z,36.88
2023-03-31T06:00:31.008Z,36.13
2023-03-31T06:02:38.378Z,29.70
2023-03-31T06:04:45.265Z,32.38
2023-03-31T06:06:53.011Z,29.35
2023-03-31T06:08:59.985Z,31.00
2023-03-31T06:11:09.657Z,34.55
2023-03-31T06:13:16.806Z,32.08
2023-03-31T06:15:24.159Z,29.60
2023-03-31T06:17:32.846Z,32.72
2023-03-31T06:19:41.283Z,30.33
2023-03-31T06:21:48.252Z,27.42
2023-03-31T06:23:57.171Z,27.23
2023-03-31T06:26:07.372Z,29.20
2023-03-31T06:28:14.609Z,26.70
2023-03-31T06:30:21.682Z,25.70
2023-03-31T06:32:29.043Z,26.42
2023-03-31T06:34:38.309Z,26.00
2023-03-31T06:36:45.448Z,27.65
2023-03-31T06:38:52.984Z,24.48
2023-03-31T06:41:00.373Z,24.65
2023-03-31T06:43:07.230Z,27.65
2023-03-31T06:45:15.394Z,28.08
2023-03-31T06:47:22.402Z,28.02
2023-03-31T06:49:29.697Z,24.00
2023-03-31T06:51:38.316Z,28.30
2023-03-31T06:53:45.546Z,29.42
2023-03-31T06:55:52.373Z,29.55
2023-03-31T06:57:59.914Z,25.75
2023-03-31T07:00:08.848Z,25.58
2023-03-31T07:02:16.215Z,25.88
2023-03-31T07:04:23.298Z,28.80
2023-03-31T07:06:30.535Z,27.08
2023-03-31T07:08:39.235Z,25.27
2023-03-31T07:10:48.119Z,27.60
2023-03-31T07:12:55.042Z,24.00
2023-03-31T07:15:02.323Z,25.65
2023-03-31T07:17:09.301Z,26.33
2023-03-31T07:19:16.592Z,23.17
2023-03-31T07:21:23.612Z,24.95
2023-03-31T07:23:30.952Z,25.92
2023-03-31T07:25:39.740Z,26.10
2023-03-31T07:27:47.576Z,22.27
2023-03-31T07:29:54.388Z,25.70
2023-03-31T07:32:01.616Z,26.52
2023-03-31T07:34:08.902Z,23.40
2023-03-31T07:36:16.374Z,21.98
2023-03-31T07:38:23.526Z,24.23
2023-03-31T07:40:33.466Z,24.35
2023-03-31T07:42:42.341Z,21.55
2023-03-31T07:44:49.732Z,23.33
2023-03-31T07:46:56.754Z,20.83
2023-03-31T07:49:04.772Z,23.40
2023-03-31T07:51:12.142Z,19.17
2023-03-31T07:53:19.386Z,24.08
2023-03-31T07:55:27.735Z,28.75
2023-03-31T07:57:34.941Z,20.27
2023-03-31T07:59:43.843Z,21.70
2023-03-31T08:01:51.332Z,25.15
2023-03-31T08:03:58.539Z,21.42
2023-03-31T08:06:06.063Z,18.80
2023-03-31T08:08:13.139Z,17.85
2023-03-31T08:10:22.013Z,22.10
2023-03-31T08:12:29.229Z,26.00
2023-03-31T08:14:41.170Z,24.02
2023-03-31T08:16:50.665Z,22.80
2023-03-31T08:21:24.229Z,21.63
2023-03-31T08:23:31.623Z,20.13
2023-03-31T08:25:38.854Z,21.08
2023-03-31T08:27:45.920Z,18.17
2023-03-31T08:29:53.206Z,17.15
2023-03-31T08:32:01.981Z,19.92
2023-03-31T08:34:09.621Z,17.42
2023-03-31T08:36:17.442Z,17.88
2023-03-31T08:38:24.956Z,20.38
2023-03-31T08:40:33.621Z,19.02
2023-03-31T08:42:44.127Z,21.15
2023-03-31T08:45:01.298Z,21.85
2023-03-31T08:47:16.717Z,21.30
2023-03-31T08:49:24.723Z,19.00
2023-03-31T08:51:34.114Z,20.50
2023-03-31T08:53:45.690Z,18.30
2023-03-31T08:55:55.289Z,19.05
2023-03-31T08:58:06.879Z,20.85
2023-03-31T09:00:19.982Z,19.45
2023-03-31T09:02:34.341Z,19.73
2023-03-31T09:04:54.377Z,19.02
2023-03-31T09:07:07.756Z,20.90
2023-03-31T09:09:26.692Z,21.45
2023-03-31T09:11:38.295Z,21.58
2023-03-31T09:14:00.162Z,18.40
2023-03-31T09:16:16.756Z,19.38
2023-03-31T09:18:38.178Z,21.63
2023-03-31T09:20:48.643Z,21.53
2023-03-31T09:23:04.840Z,21.27
2023-03-31T09:25:15.666Z,19.88
2023-03-31T09:27:24.108Z,23.73
2023-03-31T09:29:37.529Z,24.40
2023-03-31T09:31:47.268Z,22.83
2023-03-31T09:34:01.013Z,21.10
2023-03-31T09:36:18.835Z,22.50
2023-03-31T09:38:25.720Z,20.52
2023-03-31T09:40:33.211Z,23.35
2023-03-31T09:42:41.320Z,21.90
2023-03-31T09:44:51.003Z,22.33
2023-03-31T09:46:58.926Z,19.13
2023-03-31T09:49:14.799Z,20.17
2023-03-31T09:51:26.913Z,20.73
2023-03-31T09:53:38.265Z,23.60
2023-03-31T09:55:49.389Z,19.40
2023-03-31T10:01:04.797Z,4.85
2023-03-31T10:03:16.921Z,4.55
2023-03-31T10:07:37.481Z,4.75
2023-03-31T10:09:45.848Z,4.55
2023-03-31T10:12:02.657Z,5.07
2023-03-31T10:14:16.140Z,6.28
2023-03-31T10:16:31.915Z,7.40
2023-03-31T10:18:40.480Z,4.10
2023-03-31T10:20:52.380Z,4.22
2023-03-31T10:22:59.404Z,5.20
2023-03-31T10:25:17.951Z,3.78
2023-03-31T10:27:28.728Z,3.30
2023-03-31T10:29:37.350Z,2.97
2023-03-31T10:31:46.179Z,2.80
2023-03-31T10:33:55.089Z,3.58
2023-03-31T10:36:04.410Z,3.17
2023-03-31T10:38:16.395Z,2.75
2023-03-31T10:42:32.096Z,2.58
2023-03-31T10:44:40.551Z,3.55
2023-03-31T10:46:52.458Z,3.25
2023-03-31T10:51:14.924Z,3.10
2023-03-31T10:53:23.208Z,4.05
2023-03-31T10:55:36.753Z,3.33
2023-03-31T10:57:52.068Z,3.70
2023-03-31T11:00:21.561Z,4.10
2023-03-31T11:02:51.128Z,5.40
2023-03-31T11:05:06.697Z,5.15
2023-03-31T11:07:24.220Z,6.90
2023-03-31T11:09:48.963Z,5.55
2023-03-31T11:12:05.463Z,9.13
2023-03-31T11:14:19.610Z,5.68
2023-03-31T11:16:32.713Z,5.93
2023-03-31T11:19:00.960Z,6.72
2023-03-31T11:21:21.401Z,6.80
2023-03-31T11:23:39.588Z,7.43
2023-03-31T11:25:55.064Z,7.15
2023-03-31T11:28:35.176Z,7.43
2023-03-31T11:30:46.855Z,8.00
2023-03-31T11:33:06.853Z,8.50
2023-03-31T11:35:40.559Z,8.77
2023-03-31T11:38:02.774Z,7.82
2023-03-31T11:40:31.466Z,7.03
2023-03-31T11:42:42.839Z,6.70
2023-03-31T11:44:54.994Z,8.33
2023-03-31T11:47:07.572Z,7.38
2023-03-31T11:49:21.233Z,9.18
2023-03-31T11:51:34.820Z,7.60
2023-03-31T11:53:44.705Z,7.38
2023-03-31T11:55:55.011Z,7.97
2023-03-31T11:58:06.962Z,8.52
2023-03-31T12:00:20.810Z,8.38
2023-03-31T12:02:40.268Z,8.15
2023-03-31T12:04:51.488Z,8.07
2023-03-31T12:07:06.056Z,12.13
2023-03-31T12:09:20.551Z,14.07
2023-03-31T12:11:35.507Z,11.57
2023-03-31T12:13:51.243Z,10.50
2023-03-31T12:16:07.677Z,11.30
2023-03-31T12:18:21.324Z,11.38
2023-03-31T12:20:34.856Z,11.90
2023-03-31T12:22:46.795Z,10.48
2023-03-31T12:27:11.357Z,11.77
2023-03-31T12:29:28.864Z,10.43
2023-03-31T12:31:37.117Z,13.57
2023-03-31T12:33:46.520Z,10.73
2023-03-31T12:36:11.088Z,11.88
2023-03-31T12:38:34.224Z,12.27
2023-03-31T12:40:49.479Z,11.25
2023-03-31T12:43:11.817Z,12.05
2023-03-31T12:45:27.907Z,11.25
2023-03-31T12:47:56.470Z,10.57
2023-03-31T12:50:25.176Z,10.85
2023-03-31T12:52:43.163Z,9.23
2023-03-31T12:55:25.762Z,13.13
2023-03-31T12:59:40.404Z,11.23
2023-03-31T13:02:26.712Z,10.70
2023-03-31T13:04:34.490Z,14.45
2023-03-31T13:07:00.496Z,15.52
2023-03-31T13:09:09.827Z,15.45
2023-03-31T13:11:18.722Z,17.55
2023-03-31T13:13:26.116Z,15.02
2023-03-31T13:15:33.673Z,14.40
2023-03-31T13:17:42.362Z,13.57
2023-03-31T13:19:49.385Z,13.60
2023-03-31T13:21:58.226Z,12.68
2023-03-31T13:24:05.899Z,13.27
2023-03-31T13:26:49.211Z,13.77
2023-03-31T13:29:14.535Z,14.15
2023-03-31T13:31:21.799Z,12.73
2023-03-31T13:33:34.374Z,11.95
2023-03-31T13:35:43.839Z,14.43
2023-03-31T13:38:11.559Z,13.57
2023-03-31T13:40:54.274Z,12.73
2023-03-31T13:43:41.150Z,14.13
2023-03-31T13:48:36.018Z,34.70
2023-03-31T13:51:01.370Z,31.60
2023-03-31T13:53:19.965Z,34.00
2023-03-31T13:55:43.285Z,30.00
2023-03-31T13:58:35.416Z,33.00
2023-03-31T14:00:51.198Z,32.70
2023-03-31T14:03:22.867Z,32.58
2023-03-31T14:07:47.303Z,29.23
2023-03-31T14:09:58.064Z,31.17
2023-03-31T14:12:21.631Z,28.90
2023-03-31T14:14:30.756Z,31.73
2023-03-31T14:16:41.336Z,33.40
2023-03-31T14:18:55.361Z,30.67
2023-03-31T14:21:18.929Z,30.75
2023-03-31T14:23:36.042Z,36.83
2023-03-31T14:25:52.851Z,31.42
2023-03-31T14:28:11.044Z,31.10
2023-03-31T14:30:28.208Z,29.10
2023-03-31T14:32:42.814Z,29.83
2023-03-31T14:35:09.035Z,32.45
2023-03-31T14:37:22.163Z,32.15
2023-03-31T14:39:34.211Z,32.17
2023-03-31T14:41:42.671Z,31.98
2023-03-31T14:43:53.234Z,29.52
2023-03-31T14:46:04.050Z,31.50
2023-03-31T14:48:17.516Z,31.95
2023-03-31T14:50:24.609Z,34.47
2023-03-31T14:52:36.717Z,31.83
2023-03-31T14:54:44.042Z,31.33
2023-03-31T14:56:54.002Z,34.70
2023-03-31T14:59:01.375Z,36.75
2023-03-31T15:01:10.623Z,34.40
2023-03-31T15:03:19.791Z,32.35
2023-03-31T15:05:32.989Z,33.22
2023-03-31T15:07:44.289Z,34.58
2023-03-31T15:09:54.588Z,33.78
2023-03-31T15:12:04.281Z,31.25
2023-03-31T15:14:12.640Z,35.22
2023-03-31T15:16:34.513Z,34.00
2023-03-31T15:18:45.434Z,34.33
2023-03-31T15:20:52.665Z,34.63
2023-03-31T15:23:02.826Z,31.65
2023-03-31T15:25:15.632Z,32.63
2023-03-31T15:27:36.907Z,31.33
2023-03-31T15:29:48.801Z,33.70
2023-03-31T15:31:59.131Z,35.67
2023-03-31T15:34:22.980Z,31.52
2023-03-31T15:36:33.014Z,33.80
2023-03-31T15:38:42.499Z,30.60
2023-03-31T15:40:52.847Z,34.65
2023-03-31T15:43:06.355Z,28.13
2023-03-31T15:45:48.648Z,32.30
2023-03-31T15:47:57.082Z,30.13
2023-03-31T15:50:15.698Z,34.80
2023-03-31T15:52:29.644Z,32.45
2023-03-31T15:54:44.901Z,29.25
2023-03-31T15:56:52.281Z,30.70
2023-03-31T15:59:01.723Z,30.80
2023-03-31T16:01:09.657Z,32.10
2023-03-31T16:03:22.210Z,30.88
2023-03-31T16:08:16.646Z,32.83
2023-03-31T16:10:26.534Z,28.50
2023-03-31T16:12:36.581Z,31.40
2023-03-31T16:14:49.499Z,32.15
2023-03-31T16:17:02.306Z,31.42
2023-03-31T16:19:12.765Z,31.63
2023-03-31T16:21:25.681Z,35.53
2023-03-31T16:23:34.716Z,26.80
2023-03-31T16:25:44.703Z,28.67
2023-03-31T16:27:54.450Z,31.40
2023-03-31T16:30:12.944Z,31.00
2023-03-31T16:32:21.715Z,29.95
2023-03-31T16:34:34.730Z,27.52
2023-03-31T16:36:42.054Z,31.23
2023-03-31T16:38:49.713Z,26.17
2023-03-31T16:40:59.757Z,31.15
2023-03-31T16:43:16.779Z,30.75
2023-03-31T16:45:23.848Z,31.27
2023-03-31T16:49:58.078Z,31.35
2023-03-31T16:52:06.180Z,29.52
2023-03-31T16:54:13.519Z,27.92
2023-03-31T16:56:23.061Z,29.98
2023-03-31T16:58:31.146Z,32.83
2023-03-31T17:00:41.243Z,27.38
2023-03-31T17:02:48.598Z,31.00
2023-03-31T17:04:59.714Z,30.30
2023-03-31T17:07:13.348Z,33.40
2023-03-31T17:09:20.556Z,31.67
2023-03-31T17:11:29.508Z,29.58
2023-03-31T17:13:37.354Z,31.08
2023-03-31T17:15:44.537Z,31.17
2023-03-31T17:17:51.888Z,33.92
2023-03-31T17:20:00.275Z,29.65
2023-03-31T17:22:08.182Z,29.00
2023-03-31T17:24:15.212Z,27.02
2023-03-31T17:26:23.520Z,28.67
2023-03-31T17:28:32.844Z,29.60
2023-03-31T17:30:40.864Z,33.22
2023-03-31T17:32:49.315Z,31.02
2023-03-31T17:34:57.101Z,28.35
2023-03-31T17:37:04.132Z,28.92
2023-03-31T17:39:11.563Z,30.30
2023-03-31T17:41:18.797Z,29.83
2023-03-31T17:43:25.987Z,28.05
2023-03-31T17:45:35.060Z,25.92
2023-03-31T17:47:42.476Z,25.58
2023-03-31T17:49:49.624Z,27.77
2023-03-31T17:51:57.009Z,31.15
2023-03-31T17:54:04.295Z,31.70
2023-03-31T17:56:11.753Z,29.30
2023-03-31T17:58:18.759Z,25.40
2023-03-31T18:00:26.937Z,27.45
2023-03-31T18:02:35.598Z,31.00
2023-03-31T18:04:43.252Z,27.67
2023-03-31T18:06:51.427Z,31.00
2023-03-31T18:09:00.131Z,29.08
2023-03-31T18:11:08.324Z,28.23
2023-03-31T18:13:15.633Z,27.42
2023-03-31T18:15:22.684Z,28.40
2023-03-31T18:17:31.462Z,30.27
2023-03-31T18:19:40.506Z,29.20
2023-03-31T18:21:47.792Z,29.75
2023-03-31T18:23:56.308Z,30.20
2023-03-31T18:26:03.946Z,26.17
2023-03-31T18:28:10.833Z,31.67
2023-03-31T18:30:18.622Z,27.80
2023-03-31T18:32:25.693Z,26.95
2023-03-31T18:34:34.207Z,27.58
2023-03-31T18:36:42.930Z,29.63
2023-03-31T18:38:50.925Z,28.38
2023-03-31T18:40:59.436Z,27.63
2023-03-31T18:43:06.885Z,28.10
2023-03-31T18:45:14.046Z,26.75
2023-03-31T18:47:21.120Z,27.20
2023-03-31T18:49:27.965Z,25.67
2023-03-31T18:51:35.859Z,28.70
2023-03-31T18:53:44.791Z,24.67
2023-03-31T18:55:53.451Z,28.00
2023-03-31T18:58:00.267Z,27.67
2023-03-31T19:00:08.789Z,27.10
2023-03-31T19:02:17.101Z,27.50
2023-03-31T19:04:24.480Z,25.92
2023-03-31T19:06:31.662Z,25.10
2023-03-31T19:08:39.013Z,29.05
2023-03-31T19:10:47.664Z,24.92
2023-03-31T19:12:55.415Z,23.73
2023-03-31T19:15:02.248Z,25.83
2023-03-31T19:17:09.860Z,23.55
2023-03-31T19:19:16.857Z,23.02
2023-03-31T19:21:24.406Z,20.83
2023-03-31T19:23:31.321Z,21.85
2023-03-31T19:25:38.758Z,22.73
2023-03-31T19:27:47.905Z,22.90
2023-03-31T19:29:55.222Z,23.83
2023-03-31T19:32:02.258Z,21.48
2023-03-31T19:34:09.960Z,19.77
2023-03-31T19:36:18.161Z,19.25
2023-03-31T19:38:26.669Z,20.45
2023-03-31T19:40:33.793Z,21.02
2023-03-31T19:42:43.046Z,19.77
2023-03-31T19:44:51.741Z,17.70
2023-03-31T19:46:59.693Z,18.10
2023-03-31T19:49:06.969Z,18.55
2023-03-31T19:51:14.151Z,24.48
2023-03-31T19:53:20.988Z,22.58
2023-03-31T19:55:28.435Z,16.50
2023-03-31T19:57:35.542Z,15.57
2023-03-31T19:59:42.876Z,19.90
2023-03-31T20:01:51.722Z,15.43
2023-03-31T20:03:59.168Z,16.23
2023-03-31T20:06:07.954Z,17.52
2023-03-31T20:08:15.137Z,19.05
2023-03-31T20:10:22.410Z,16.70
2023-03-31T20:12:32.569Z,19.27
2023-03-31T20:14:39.609Z,17.30
2023-03-31T20:16:47.446Z,16.95
2023-03-31T20:18:58.328Z,18.30
2023-03-31T20:21:10.681Z,17.42
2023-03-31T20:23:17.704Z,18.83
2023-03-31T20:25:24.976Z,16.83
2023-03-31T20:27:31.954Z,20.25
2023-03-31T20:29:39.186Z,17.98
2023-03-31T20:31:46.161Z,20.38
2023-03-31T20:33:54.224Z,19.48
2023-03-31T20:36:08.499Z,17.65
2023-03-31T20:38:15.850Z,19.50
2023-03-31T20:40:22.825Z,17.27
2023-03-31T20:42:29.910Z,20.25
2023-03-31T20:44:37.190Z,19.98
2023-03-31T20:46:45.194Z,16.55
2023-03-31T20:48:54.168Z,19.15
2023-03-31T20:51:01.508Z,17.83
2023-03-31T20:53:10.119Z,18.27
2023-03-31T20:55:17.859Z,18.02
2023-03-31T20:57:25.305Z,17.48
2023-03-31T20:59:32.443Z,19.90
2023-03-31T21:01:40.327Z,20.48
2023-03-31T21:03:47.760Z,19.15
2023-03-31T21:05:54.692Z,20.58
2023-03-31T21:08:01.927Z,18.55
2023-03-31T21:10:11.715Z,23.25
2023-03-31T21:12:19.001Z,18.75
2023-03-31T21:14:25.978Z,16.02
2023-03-31T21:16:33.351Z,19.02
2023-03-31T21:18:41.004Z,20.15
2023-03-31T21:20:54.492Z,18.08
2023-03-31T21:23:01.906Z,17.05
2023-03-31T21:25:12.030Z,20.83
2023-03-31T21:27:19.052Z,19.25
2023-03-31T21:29:26.084Z,17.48
2023-03-31T21:31:33.133Z,18.17
2023-03-31T21:33:42.802Z,18.75
2023-03-31T21:35:49.806Z,23.42
2023-03-31T21:37:57.221Z,16.42
2023-03-31T21:40:04.459Z,21.77
2023-03-31T21:42:13.676Z,22.13
2023-03-31T21:44:20.626Z,22.80
2023-03-31T21:46:29.367Z,17.77
2023-03-31T21:48:36.569Z,17.58
2023-03-31T21:50:44.352Z,18.35
2023-03-31T21:52:51.431Z,19.80
2023-03-31T21:54:58.880Z,18.58
2023-03-31T21:57:05.932Z,18.83
2023-03-31T21:59:15.130Z,20.35
2023-03-31T22:01:22.617Z,18.15
2023-03-31T22:03:33.167Z,19.27
2023-03-31T22:05:40.103Z,17.48
2023-03-31T22:07:47.126Z,21.52
2023-03-31T22:09:53.948Z,17.95
2023-03-31T22:12:00.977Z,18.20
2023-03-31T22:14:07.849Z,19.08
2023-03-31T22:16:21.719Z,19.83
2023-03-31T22:18:29.024Z,20.83
2023-03-31T22:20:36.117Z,20.52
2023-03-31T22:22:43.847Z,22.30
2023-03-31T22:24:51.182Z,20.75
2023-03-31T22:26:58.261Z,19.35
2023-03-31T22:29:05.291Z,19.83
2023-03-31T22:31:12.809Z,20.50
2023-03-31T22:33:21.644Z,18.45
2023-03-31T22:35:29.153Z,16.88
2023-03-31T22:37:36.066Z,18.17
2023-03-31T22:39:43.551Z,16.15
2023-03-31T22:41:52.577Z,20.75
2023-03-31T22:43:59.907Z,19.20
2023-03-31T22:46:07.912Z,18.58
2023-03-31T22:48:15.090Z,17.23
2023-03-31T22:50:23.835Z,18.23
2023-03-31T22:52:31.204Z,23.52
2023-03-31T22:54:38.069Z,26.98
2023-03-31T22:56:45.722Z,25.65
2023-03-31T22:58:53.197Z,20.77
2023-03-31T23:01:01.333Z,22.90
2023-03-31T23:03:08.587Z,20.50
2023-03-31T23:05:15.881Z,20.23
2023-03-31T23:07:24.649Z,21.02
2023-03-31T23:09:31.926Z,19.95
2023-03-31T23:11:39.156Z,22.15
2023-03-31T23:13:46.188Z,19.73
2023-03-31T23:15:53.063Z,17.92
2023-03-31T23:18:00.419Z,21.63
2023-03-31T23:20:08.199Z,21.80
2023-03-31T23:22:15.596Z,20.83
2023-03-31T23:24:25.641Z,21.52
2023-03-31T23:26:33.836Z,17.63
2023-03-31T23:28:41.325Z,23.00
2023-03-31T23:30:57.719Z,19.95
2023-03-31T23:33:04.646Z,20.75
2023-03-31T23:35:12.542Z,23.05
2023-03-31T23:37:20.050Z,18.63
2023-03-31T23:39:29.006Z,21.10
2023-03-31T23:41:36.287Z,19.48
2023-03-31T23:43:43.878Z,18.98
2023-03-31T23:45:50.940Z,22.60
2023-03-31T23:47:58.140Z,21.60
2023-03-31T23:50:05.276Z,21.17
2023-03-31T23:52:12.653Z,20.42
2023-03-31T23:54:19.638Z,20.60
2023-03-31T23:56:29.833Z,19.30
2023-03-31T23:58:37.021Z,18.38
